This is the latest recevied weather packets stored in our database for station/object NE1CU. If no packets are shown the sender has not sent any weather packets the latest 10 day(s).
| Time | Temp. | Humidity | Pressure | Rain* | Wind** | Luminosity | Snow |
|---|---|---|---|---|---|---|---|
| 1777836821 | 14.44° C | 30% | 1009.6 hPa | 0 mm | - | 834 W/m² | - |
| 1777836517 | 14.44° C | 30% | 1009.6 hPa | 0 mm | - | 866 W/m² | - |
| 1777836213 | 13.33° C | 32% | 1009.5 hPa | 0 mm | - | 957 W/m² | - |
| 1777835910 | 13.89° C | 31% | 1009.6 hPa | 0 mm | - | 279 W/m² | - |
| 1777835607 | 13.89° C | 31% | 1009.6 hPa | 0 mm | - | 287 W/m² | - |
| 1777835304 | 14.44° C | 30% | 1009.6 hPa | 0 mm | - | 512 W/m² | - |
| 1777835001 | 15° C | 29% | 1009.5 hPa | 0 mm | - | 900 W/m² | - |
| 1777834698 | 14.44° C | 31% | 1009.4 hPa | 0 mm | - | 944 W/m² | - |
| 1777834394 | 13.89° C | 34% | 1009.4 hPa | 0 mm | - | 967 W/m² | - |
| 1777834093 | 14.44° C | 31% | 1009.7 hPa | 0 mm | - | 405 W/m² | - |
| 1777833790 | 13.33° C | 32% | 1009.4 hPa | 0 mm | - | 1078 W/m² | - |
| 1777833486 | 13.89° C | 30% | 1009.5 hPa | 0 mm | - | 355 W/m² | - |
| 1777833183 | 13.33° C | 31% | 1009.5 hPa | 0 mm | - | 344 W/m² | - |
| 1777832880 | 13.89° C | 30% | 1009.3 hPa | 0 mm | - | 383 W/m² | - |
| 1777832580 | 13.89° C | 32% | 1009.4 hPa | 0 mm | - | 1096 W/m² | - |
| 1777832276 | 13.89° C | 30% | 1009.4 hPa | 0 mm | - | 343 W/m² | - |
| 1777831973 | 13.89° C | 28% | 1009.4 hPa | 0 mm | - | 640 W/m² | - |
| 1777831669 | 13.89° C | 32% | 1009.4 hPa | 0 mm | - | 1120 W/m² | - |
| 1777831368 | 15° C | 28% | 1009.2 hPa | 0 mm | - | 315 W/m² | - |
| 1777831064 | 13.89° C | 31% | 1009.1 hPa | 0 mm | - | 1106 W/m² | - |
| 1777830762 | 13.33° C | 30% | 1009.3 hPa | 0 mm | - | 1248 W/m² | - |
| 1777830457 | 13.33° C | 28% | 1009.3 hPa | 0 mm | - | 384 W/m² | - |
| 1777830156 | 13.33° C | 31% | 1009.6 hPa | 0 mm | - | 386 W/m² | - |
| 1777829856 | 13.33° C | 31% | 1009.6 hPa | 0 mm | - | 590 W/m² | - |
| 1777829552 | 13.89° C | 30% | 1009.5 hPa | 0 mm | - | 333 W/m² | - |
* Rain latest hour (hover to see other rain measurements)
** Current wind speed in m/s (hover to see current wind gust speed)